Time;durP1;ratioP1;P1;durP2;ratioP2;P2;SDS_P1;SDS_P2;PMS_P1;PMS_P2;Temp;Humidity;BMP_temperature;BMP_pressure;BME280_temperature;BME280_humidity;BME280_pressure;Samples;Min_cycle;Max_cycle;Signal;HPM_P1;HPM_P2
2022/08/08 00:02:14;;;;;;;2.90;1.85;;;21.20;80.50;;;;;;5116189;28;20039;-71
2022/08/08 00:05:22;;;;;;;5.10;1.98;;;21.20;80.70;;;;;;5122871;27;20011;-71
2022/08/08 00:08:03;;;;;;;2.10;1.83;;;21.20;81.00;;;;;;5136687;27;20035;-71
2022/08/08 00:10:43;;;;;;;2.08;1.60;;;21.20;80.40;;;;;;5136431;27;20027;-71
2022/08/08 00:13:27;;;;;;;1.60;1.50;;;21.10;77.00;;;;;;5136524;27;20429;-71
2022/08/08 00:16:00;;;;;;;1.73;1.58;;;21.10;74.60;;;;;;5136406;27;20038;-71
2022/08/08 00:18:44;;;;;;;2.33;1.40;;;21.00;73.40;;;;;;5135980;27;20029;-71
2022/08/08 00:21:16;;;;;;;2.50;1.48;;;21.10;73.10;;;;;;5136615;27;20023;-71
2022/08/08 00:23:50;;;;;;;2.50;1.20;;;21.00;71.80;;;;;;5136724;27;20072;-71
2022/08/08 00:26:38;;;;;;;1.52;1.42;;;21.10;72.10;;;;;;5136181;27;20079;-71
2022/08/08 00:29:10;;;;;;;1.75;1.30;;;21.00;72.30;;;;;;5136306;27;20079;-70
2022/08/08 00:31:47;;;;;;;1.35;1.15;;;21.00;72.00;;;;;;5135585;27;20106;-71
2022/08/08 00:37:36;;;;;;;1.40;1.25;;;21.00;71.20;;;;;;5135587;27;20043;-71
2022/08/08 00:40:33;;;;;;;2.92;1.65;;;21.00;71.60;;;;;;5136255;27;20019;-71
2022/08/08 00:43:24;;;;;;;1.50;1.40;;;21.00;71.40;;;;;;5135987;27;20037;-71
2022/08/08 00:46:13;;;;;;;1.58;1.48;;;21.00;71.70;;;;;;5135942;27;20034;-71
2022/08/08 00:49:12;;;;;;;2.92;1.52;;;21.00;72.30;;;;;;5133999;27;20023;-70
2022/08/08 00:51:51;;;;;;;2.42;1.50;;;21.00;72.00;;;;;;5135517;27;20050;-70
2022/08/08 00:54:22;;;;;;;2.33;1.50;;;20.90;71.70;;;;;;5135556;27;20527;-72
2022/08/08 00:57:03;;;;;;;2.22;1.60;;;20.90;71.90;;;;;;5135388;27;20071;-70
2022/08/08 00:59:59;;;;;;;2.80;1.77;;;20.90;72.60;;;;;;5135410;27;20030;-71
2022/08/08 01:02:50;;;;;;;1.65;1.38;;;20.90;72.00;;;;;;5134961;27;20035;-71
2022/08/08 01:05:37;;;;;;;1.40;1.30;;;20.80;71.90;;;;;;5135494;27;20031;-71
2022/08/08 01:08:40;;;;;;;2.10;1.20;;;20.80;72.10;;;;;;5135205;27;20034;-71
2022/08/08 01:11:43;;;;;;;1.73;1.35;;;20.80;72.50;;;;;;5135381;27;20111;-71
2022/08/08 01:14:41;;;;;;;1.60;1.30;;;20.70;72.50;;;;;;5135119;27;20058;-71
2022/08/08 01:17:18;;;;;;;1.65;1.30;;;20.70;72.30;;;;;;5135454;27;20115;-71
2022/08/08 01:20:41;;;;;;;1.88;1.40;;;20.70;72.00;;;;;;5134982;27;20439;-71
2022/08/08 01:23:31;;;;;;;2.33;1.35;;;20.70;71.80;;;;;;5135594;27;20112;-71
2022/08/08 01:26:09;;;;;;;2.17;1.30;;;20.70;72.30;;;;;;5135267;27;20030;-71
2022/08/08 01:29:12;;;;;;;1.40;1.20;;;20.60;72.50;;;;;;5134369;27;20035;-71
2022/08/08 01:32:15;;;;;;;1.63;1.20;;;20.60;72.30;;;;;;5134698;27;20529;-71
2022/08/08 01:34:56;;;;;;;1.40;1.10;;;20.60;72.10;;;;;;5134985;27;20033;-71
2022/08/08 01:38:06;;;;;;;2.08;1.25;;;20.60;71.80;;;;;;5134709;27;20031;-70
2022/08/08 01:40:32;;;;;;;2.20;1.50;;;20.60;71.70;;;;;;5134655;27;20036;-70
2022/08/08 01:43:06;;;;;;;2.20;1.30;;;20.60;71.60;;;;;;5135016;27;20143;-70
2022/08/08 01:45:50;;;;;;;2.10;1.20;;;20.60;71.70;;;;;;5134408;27;20019;-70
2022/08/08 01:48:26;;;;;;;1.55;1.38;;;20.60;71.60;;;;;;5134345;27;20079;-71
2022/08/08 01:51:17;;;;;;;1.67;1.40;;;20.60;71.70;;;;;;5134810;27;20023;-71
2022/08/08 01:54:05;;;;;;;3.50;2.03;;;20.60;72.50;;;;;;5133743;27;20051;-70
2022/08/08 01:56:51;;;;;;;2.10;1.27;;;20.50;72.60;;;;;;5134166;27;20091;-71
2022/08/08 01:59:38;;;;;;;2.20;1.60;;;20.50;73.00;;;;;;5134312;27;20023;-72
2022/08/08 02:02:39;;;;;;;1.88;1.10;;;20.40;73.10;;;;;;5134298;27;20088;-71
2022/08/08 02:05:44;;;;;;;1.92;1.40;;;20.40;72.90;;;;;;5134365;27;20037;-71
2022/08/08 02:08:55;;;;;;;2.47;1.70;;;20.40;72.80;;;;;;5134262;27;20027;-71
2022/08/08 02:11:35;;;;;;;1.63;1.30;;;20.40;73.30;;;;;;5044469;28;20043;-70
2022/08/08 02:14:06;;;;;;;2.17;1.30;;;20.40;72.90;;;;;;5113592;28;20028;-70
2022/08/08 02:16:42;;;;;;;1.98;1.58;;;20.40;73.20;;;;;;5113432;28;20103;-70
2022/08/08 02:19:15;;;;;;;1.50;1.25;;;20.30;73.20;;;;;;5113580;28;20028;-70
2022/08/08 02:24:41;;;;;;;2.45;1.30;;;20.30;73.70;;;;;;5112923;28;20479;-71
2022/08/08 02:27:17;;;;;;;2.70;1.60;;;20.30;73.20;;;;;;5113195;28;20024;-70
2022/08/08 02:30:09;;;;;;;3.35;1.92;;;20.30;73.20;;;;;;5112100;28;20048;-71
2022/08/08 02:33:10;;;;;;;1.33;1.23;;;20.30;73.20;;;;;;5132062;27;20066;-70
2022/08/08 02:35:57;;;;;;;3.83;1.17;;;20.30;73.70;;;;;;5100248;27;20043;-69
2022/08/08 02:38:40;;;;;;;1.52;1.15;;;20.30;73.20;;;;;;5133386;27;20452;-73
2022/08/08 02:41:33;;;;;;;1.90;1.40;;;20.30;73.20;;;;;;5133710;27;20029;-72
2022/08/08 02:44:24;;;;;;;2.38;1.27;;;20.30;72.90;;;;;;5133625;27;20054;-71
2022/08/08 02:47:11;;;;;;;1.55;1.30;;;20.20;73.10;;;;;;5133474;27;20019;-71
2022/08/08 02:50:14;;;;;;;1.75;1.27;;;20.20;73.30;;;;;;5133703;27;20084;-71
2022/08/08 02:53:13;;;;;;;1.55;1.23;;;20.20;73.80;;;;;;5133050;27;20027;-70
2022/08/08 02:55:50;;;;;;;2.05;1.40;;;20.10;74.20;;;;;;5133229;27;20034;-71
2022/08/08 02:58:48;;;;;;;4.93;1.60;;;20.10;74.10;;;;;;5133738;27;20027;-71
2022/08/08 03:01:32;;;;;;;1.85;1.35;;;20.10;73.90;;;;;;5072554;27;20104;-71
2022/08/08 03:04:19;;;;;;;1.67;1.40;;;20.10;74.10;;;;;;5133831;27;20024;-71
2022/08/08 03:07:22;;;;;;;2.45;1.45;;;20.00;74.90;;;;;;5133431;28;20492;-71
2022/08/08 03:10:32;;;;;;;3.97;1.38;;;20.10;74.30;;;;;;5133047;28;20023;-71
2022/08/08 03:13:23;;;;;;;1.63;1.35;;;20.00;74.60;;;;;;5137115;27;20027;-71
2022/08/08 03:15:59;;;;;;;2.53;1.50;;;20.00;74.60;;;;;;5137475;27;20126;-71
2022/08/08 03:18:55;;;;;;;1.70;1.25;;;20.10;74.40;;;;;;5137839;27;20028;-70
2022/08/08 03:21:20;;;;;;;1.92;1.30;;;20.10;74.60;;;;;;5046983;27;20044;-71
2022/08/08 03:23:46;;;;;;;1.88;1.30;;;20.00;74.50;;;;;;5137242;27;20027;-70
2022/08/08 03:26:18;;;;;;;2.25;1.30;;;20.00;74.70;;;;;;5137321;27;20121;-70
2022/08/08 03:28:52;;;;;;;1.70;1.40;;;20.00;74.90;;;;;;5136801;27;20424;-69
2022/08/08 03:34:07;;;;;;;1.25;1.05;;;20.00;75.00;;;;;;5137302;27;20083;-71
2022/08/08 03:36:40;;;;;;;1.85;1.50;;;19.90;75.30;;;;;;5136827;27;20031;-71
2022/08/08 03:39:05;;;;;;;2.50;1.52;;;19.90;75.20;;;;;;5137094;27;20028;-71
2022/08/08 03:41:34;;;;;;;1.67;1.33;;;19.90;75.70;;;;;;5136688;27;20050;-71
2022/08/08 03:44:00;;;;;;;1.95;1.33;;;19.90;75.60;;;;;;5137293;27;20026;-71
2022/08/08 03:46:26;;;;;;;4.53;1.63;;;20.00;75.40;;;;;;5137223;27;20019;-71
2022/08/08 03:49:00;;;;;;;3.65;1.45;;;19.90;75.00;;;;;;5136371;27;20027;-71
2022/08/08 03:51:26;;;;;;;1.45;1.27;;;19.90;75.40;;;;;;5118673;27;20473;-71
2022/08/08 03:53:53;;;;;;;1.67;1.42;;;19.90;75.00;;;;;;5136529;27;20362;-71
2022/08/08 03:56:20;;;;;;;2.92;1.35;;;19.90;75.10;;;;;;5136912;27;20031;-71
2022/08/08 03:58:51;;;;;;;1.25;1.15;;;19.80;75.90;;;;;;5136487;27;20023;-71
2022/08/08 04:01:17;;;;;;;1.90;1.50;;;19.80;75.80;;;;;;5136982;27;20027;-71
2022/08/08 04:03:48;;;;;;;1.35;1.25;;;19.80;75.80;;;;;;5136191;27;20390;-71
2022/08/08 04:06:14;;;;;;;2.33;1.85;;;19.80;76.20;;;;;;5136879;27;20080;-71
2022/08/08 04:08:40;;;;;;;2.15;1.45;;;19.80;75.60;;;;;;5134568;27;20031;-71
2022/08/08 04:11:07;;;;;;;1.67;1.30;;;19.80;75.40;;;;;;5117767;27;20104;-71
2022/08/08 04:13:33;;;;;;;1.88;1.50;;;19.80;75.40;;;;;;5115669;28;20047;-71
2022/08/08 04:15:59;;;;;;;1.63;1.20;;;19.90;75.10;;;;;;5116041;28;20452;-71
2022/08/08 04:18:25;;;;;;;1.98;1.17;;;19.90;75.40;;;;;;5115910;28;20034;-71
2022/08/08 04:20:51;;;;;;;1.40;1.30;;;19.80;75.40;;;;;;5115407;28;20363;-71
2022/08/08 04:23:17;;;;;;;2.60;1.10;;;19.90;75.20;;;;;;5115633;28;20387;-71
2022/08/08 04:25:42;;;;;;;1.20;1.10;;;19.90;75.10;;;;;;5097185;28;20638;-71
2022/08/08 04:28:08;;;;;;;1.90;1.48;;;19.80;74.40;;;;;;5115628;28;20028;-71
2022/08/08 04:30:34;;;;;;;1.52;1.23;;;19.90;74.90;;;;;;5118177;27;20043;-72
2022/08/08 04:33:00;;;;;;;2.38;1.58;;;19.90;74.30;;;;;;5115772;28;20028;-71
2022/08/08 04:35:26;;;;;;;1.42;1.33;;;19.90;73.60;;;;;;5115690;28;20038;-70
2022/08/08 04:37:53;;;;;;;1.63;1.30;;;19.90;73.60;;;;;;5115551;28;20032;-71
2022/08/08 04:40:19;;;;;;;3.60;1.30;;;19.90;73.40;;;;;;5115601;28;20422;-70
2022/08/08 04:42:45;;;;;;;1.85;1.10;;;19.90;72.90;;;;;;5115215;28;20452;-71
2022/08/08 04:45:11;;;;;;;2.80;1.35;;;20.00;72.80;;;;;;5115368;28;20028;-71
2022/08/08 04:47:37;;;;;;;1.83;1.50;;;20.00;72.90;;;;;;5115032;28;20035;-71
2022/08/08 04:50:03;;;;;;;2.38;1.85;;;20.00;73.10;;;;;;5115311;28;20039;-71
2022/08/08 04:52:29;;;;;;;1.77;1.40;;;20.00;72.90;;;;;;5096906;28;20478;-70
2022/08/08 04:54:55;;;;;;;1.70;1.30;;;20.00;73.40;;;;;;5114550;28;20114;-71
2022/08/08 04:57:20;;;;;;;1.63;1.52;;;20.00;73.60;;;;;;5115222;28;20030;-70
2022/08/08 04:59:46;;;;;;;1.50;1.35;;;20.00;73.50;;;;;;5114622;28;20341;-72
2022/08/08 05:02:12;;;;;;;1.30;1.20;;;20.00;72.80;;;;;;5114893;28;20034;-71
2022/08/08 05:04:37;;;;;;;1.40;1.30;;;20.10;72.80;;;;;;5114497;28;20231;-72
2022/08/08 05:07:03;;;;;;;1.40;1.10;;;20.10;72.90;;;;;;5114980;28;20050;-71
2022/08/08 05:09:29;;;;;;;2.17;1.30;;;20.20;72.90;;;;;;5115057;28;20028;-71
2022/08/08 05:11:55;;;;;;;1.65;1.50;;;20.20;72.30;;;;;;5096137;28;20027;-70
2022/08/08 05:14:21;;;;;;;3.50;1.10;;;20.20;72.20;;;;;;5114587;28;20557;-71
2022/08/08 05:16:46;;;;;;;1.90;1.30;;;20.20;71.30;;;;;;5114768;28;20059;-71
2022/08/08 05:19:12;;;;;;;3.60;1.48;;;20.20;71.10;;;;;;5114366;28;20038;-71
2022/08/08 05:21:42;;;;;;;1.17;1.10;;;20.20;70.60;;;;;;5096027;28;20024;-72
2022/08/08 05:24:09;;;;;;;1.50;1.25;;;20.20;69.90;;;;;;5114615;28;20032;-70
2022/08/08 05:26:36;;;;;;;1.35;1.10;;;20.20;70.30;;;;;;5114546;28;20031;-71
2022/08/08 05:29:03;;;;;;;3.60;1.60;;;20.30;70.50;;;;;;5114419;28;20097;-70
2022/08/08 05:31:31;;;;;;;1.17;1.08;;;20.30;70.10;;;;;;5114665;28;20119;-71
2022/08/08 05:33:57;;;;;;;1.52;1.00;;;20.40;69.90;;;;;;5113233;28;20111;-70
2022/08/08 05:36:24;;;;;;;2.85;1.23;;;20.30;70.00;;;;;;5114125;28;20103;-71
2022/08/08 05:38:51;;;;;;;1.67;1.30;;;20.40;69.10;;;;;;5113879;28;20032;-71
2022/08/08 05:41:22;;;;;;;1.23;1.10;;;20.40;68.80;;;;;;5113994;28;20104;-71
2022/08/08 05:43:48;;;;;;;1.42;1.13;;;20.40;68.40;;;;;;5113650;28;20368;-70
2022/08/08 05:46:15;;;;;;;2.42;1.15;;;20.40;69.00;;;;;;5114190;28;20103;-70
2022/08/08 05:48:41;;;;;;;1.05;0.95;;;20.40;67.50;;;;;;5113785;28;20028;-71
2022/08/08 05:51:07;;;;;;;1.27;1.17;;;20.40;67.30;;;;;;5114255;28;20024;-71
2022/08/08 05:53:33;;;;;;;0.90;0.90;;;20.40;67.80;;;;;;5113993;28;20031;-71
2022/08/08 05:56:00;;;;;;;3.38;1.25;;;20.40;68.20;;;;;;5113681;28;20039;-71
2022/08/08 05:58:31;;;;;;;2.67;1.10;;;20.40;67.30;;;;;;5114226;28;20032;-72
2022/08/08 06:00:58;;;;;;;;;;;20.50;66.60;;;;;;5113849;28;20364;-73
2022/08/08 06:03:26;;;;;;;2.30;1.20;;;20.50;66.50;;;;;;5130869;27;19903;-71
2022/08/08 06:05:57;;;;;;;1.77;1.02;;;20.60;66.80;;;;;;5133953;27;20027;-72
2022/08/08 06:08:25;;;;;;;1.30;1.20;;;20.60;66.80;;;;;;5133997;27;20042;-71
2022/08/08 06:10:53;;;;;;;1.85;1.17;;;20.70;66.30;;;;;;5133887;27;20035;-72
2022/08/08 06:13:19;;;;;;;2.17;1.15;;;20.70;65.80;;;;;;5133818;27;20543;-71
2022/08/08 06:15:48;;;;;;;2.30;1.23;;;20.80;65.10;;;;;;5133628;27;20098;-71
2022/08/08 06:18:15;;;;;;;1.30;1.20;;;20.90;65.00;;;;;;5133882;27;20467;-71
2022/08/08 06:20:41;;;;;;;2.15;1.23;;;20.90;64.90;;;;;;5134140;27;20027;-72
2022/08/08 06:23:07;;;;;;;1.13;0.95;;;21.00;65.90;;;;;;5133131;27;20121;-72
2022/08/08 06:25:38;;;;;;;2.45;1.00;;;21.10;64.70;;;;;;5131324;27;20098;-71
2022/08/08 06:28:30;;;;;;;2.05;1.30;;;21.30;64.20;;;;;;5133649;27;20015;-72
2022/08/08 06:31:03;;;;;;;2.40;1.02;;;21.40;62.40;;;;;;5133452;27;20039;-71
2022/08/08 06:33:42;;;;;;;1.00;1.00;;;21.30;60.90;;;;;;5133612;27;20031;-71
2022/08/08 06:36:10;;;;;;;1.38;0.85;;;21.30;61.90;;;;;;5133715;27;20031;-71
2022/08/08 06:38:38;;;;;;;1.85;1.02;;;21.20;63.00;;;;;;5133700;27;20059;-71
2022/08/08 06:41:11;;;;;;;1.45;1.10;;;21.20;63.30;;;;;;5133179;27;20022;-71
2022/08/08 06:43:40;;;;;;;1.70;1.10;;;21.20;63.10;;;;;;5133424;27;20027;-71
2022/08/08 06:46:06;;;;;;;1.33;0.85;;;21.20;62.30;;;;;;5132051;27;20102;-71
2022/08/08 06:48:34;;;;;;;2.75;1.13;;;21.30;61.80;;;;;;5115175;27;20577;-71
2022/08/08 06:51:03;;;;;;;1.13;0.98;;;21.30;62.10;;;;;;5133329;27;20023;-71
2022/08/08 06:53:29;;;;;;;1.20;0.73;;;21.30;62.30;;;;;;5133264;27;20114;-71
2022/08/08 06:55:56;;;;;;;1.23;1.00;;;21.30;61.40;;;;;;5132854;27;20102;-69
2022/08/08 06:58:22;;;;;;;0.90;0.80;;;21.40;62.90;;;;;;5133166;27;20487;-70
2022/08/08 07:00:49;;;;;;;1.02;0.93;;;21.50;62.50;;;;;;5132964;27;20032;-70
2022/08/08 07:03:29;;;;;;;1.38;1.00;;;21.70;61.90;;;;;;5133683;27;20054;-71
2022/08/08 07:05:56;;;;;;;2.05;1.00;;;21.80;61.50;;;;;;5133022;27;20034;-71
2022/08/08 07:08:32;;;;;;;1.23;1.13;;;21.90;60.40;;;;;;5133410;28;20110;-72
2022/08/08 07:10:58;;;;;;;1.52;1.10;;;22.00;60.60;;;;;;5133203;28;20320;-72
2022/08/08 07:13:42;;;;;;;1.35;1.00;;;22.10;61.20;;;;;;5133449;28;20046;-71
2022/08/08 07:16:17;;;;;;;1.70;1.02;;;22.10;59.90;;;;;;5132657;28;20482;-71
2022/08/08 07:18:55;;;;;;;2.03;0.88;;;22.10;60.40;;;;;;5133377;28;20031;-71
2022/08/08 07:21:26;;;;;;;1.80;1.30;;;22.00;58.80;;;;;;5133053;28;20031;-70
2022/08/08 07:24:06;;;;;;;1.77;1.08;;;22.00;58.90;;;;;;5132726;28;20058;-71
2022/08/08 07:26:33;;;;;;;3.70;1.25;;;22.10;59.10;;;;;;5133431;28;20467;-71
2022/08/08 07:29:01;;;;;;;2.78;1.50;;;22.10;59.40;;;;;;5132880;28;20126;-70
2022/08/08 07:31:28;;;;;;;2.33;1.10;;;22.10;61.10;;;;;;5133241;28;20026;-70
2022/08/08 07:33:55;;;;;;;1.10;1.00;;;22.40;61.20;;;;;;5132756;28;20045;-71
2022/08/08 07:36:21;;;;;;;1.98;0.80;;;22.30;60.10;;;;;;5133429;28;20080;-70
2022/08/08 07:38:47;;;;;;;1.15;1.00;;;22.00;60.40;;;;;;5132880;28;20023;-72
2022/08/08 07:41:15;;;;;;;6.47;1.27;;;21.90;61.60;;;;;;5132864;28;20475;-71
2022/08/08 07:43:42;;;;;;;2.15;1.10;;;21.90;63.30;;;;;;5133100;28;20061;-71
2022/08/08 07:46:08;;;;;;;1.77;1.10;;;21.80;65.40;;;;;;5132497;28;20034;-71
2022/08/08 07:48:33;;;;;;;2.70;1.10;;;21.70;68.20;;;;;;5133021;28;20027;-71
2022/08/08 07:51:01;;;;;;;1.75;1.10;;;21.50;71.30;;;;;;5132575;28;20039;-71
2022/08/08 07:53:53;;;;;;;3.10;1.08;;;21.40;71.80;;;;;;5130000;28;20059;-70
2022/08/08 07:56:19;;;;;;;3.22;1.60;;;21.30;73.00;;;;;;5131964;28;20082;-71
2022/08/08 07:58:48;;;;;;;1.27;1.17;;;21.10;74.50;;;;;;5136333;27;20425;-71
2022/08/08 08:01:19;;;;;;;2.65;1.30;;;21.00;75.80;;;;;;5136913;27;20110;-71
2022/08/08 08:03:50;;;;;;;;;;;20.90;75.70;;;;;;5137234;27;20142;-71
2022/08/08 08:06:18;;;;;;;1.85;1.33;;;20.90;76.70;;;;;;5136631;27;19903;-71
2022/08/08 08:08:52;;;;;;;1.90;1.20;;;20.80;77.60;;;;;;5136622;27;20483;-70
2022/08/08 08:11:20;;;;;;;5.05;1.52;;;20.70;78.70;;;;;;5136779;27;20102;-71
2022/08/08 08:14:07;;;;;;;3.08;1.50;;;20.70;79.30;;;;;;5136655;27;20027;-71
2022/08/08 08:16:35;;;;;;;1.52;1.17;;;20.70;79.60;;;;;;5136461;27;20031;-72
2022/08/08 08:19:06;;;;;;;2.92;1.75;;;20.70;79.50;;;;;;5123003;27;20020;-71
2022/08/08 08:21:43;;;;;;;3.85;1.52;;;20.60;79.70;;;;;;5115661;28;20024;-71
2022/08/08 08:24:10;;;;;;;4.90;1.70;;;20.60;80.00;;;;;;5115417;28;20031;-72
2022/08/08 08:26:36;;;;;;;2.40;1.50;;;20.60;80.50;;;;;;5115511;28;20429;-71
2022/08/08 08:29:01;;;;;;;1.73;1.27;;;20.60;78.50;;;;;;5114950;28;20052;-71
2022/08/08 08:31:27;;;;;;;1.73;1.25;;;20.60;78.30;;;;;;5115600;28;20475;-70
2022/08/08 08:33:53;;;;;;;6.43;1.88;;;20.50;78.20;;;;;;5114998;28;20075;-71
2022/08/08 08:36:19;;;;;;;2.53;1.38;;;20.50;78.80;;;;;;5115508;28;20019;-72
2022/08/08 08:38:45;;;;;;;5.68;1.95;;;20.50;78.90;;;;;;5115526;28;20019;-71
2022/08/08 08:41:12;;;;;;;2.38;1.30;;;20.50;80.50;;;;;;5115150;28;20024;-71
2022/08/08 08:43:41;;;;;;;1.60;1.30;;;20.50;80.20;;;;;;5115617;28;20027;-70
2022/08/08 08:46:09;;;;;;;3.33;1.45;;;20.50;80.40;;;;;;5114718;28;20028;-70
2022/08/08 08:48:35;;;;;;;1.50;1.35;;;20.50;80.50;;;;;;5115241;28;20475;-70
2022/08/08 08:51:04;;;;;;;2.50;1.52;;;20.40;80.50;;;;;;5115023;28;20028;-72
2022/08/08 08:53:35;;;;;;;3.38;1.50;;;20.50;79.70;;;;;;5115480;28;20119;-70
2022/08/08 08:56:02;;;;;;;2.58;1.10;;;20.40;80.50;;;;;;5114912;28;20032;-71
2022/08/08 08:58:42;;;;;;;3.30;1.40;;;20.40;81.00;;;;;;5115071;28;20027;-71
2022/08/08 09:01:10;;;;;;;3.10;1.50;;;20.30;80.90;;;;;;5114922;28;20025;-72
2022/08/08 09:03:39;;;;;;;2.22;1.35;;;20.30;80.10;;;;;;5115111;28;20117;-70
2022/08/08 09:06:08;;;;;;;2.28;1.60;;;20.30;81.20;;;;;;5096380;28;20076;-72
2022/08/08 09:08:38;;;;;;;3.03;1.23;;;20.30;82.50;;;;;;5114782;28;20365;-71
2022/08/08 09:11:06;;;;;;;1.65;1.08;;;20.30;84.00;;;;;;5113972;28;20020;-70
2022/08/08 09:13:34;;;;;;;3.10;1.38;;;20.20;82.50;;;;;;5115188;28;20059;-71
2022/08/08 09:16:01;;;;;;;3.28;1.27;;;20.20;81.10;;;;;;5114339;28;20031;-71
2022/08/08 09:18:28;;;;;;;3.60;1.52;;;20.10;81.80;;;;;;5114855;28;20064;-71
2022/08/08 09:20:54;;;;;;;4.57;1.88;;;20.10;83.90;;;;;;5114459;28;20059;-71
2022/08/08 09:23:21;;;;;;;1.73;1.13;;;20.10;83.90;;;;;;5114998;28;20027;-71
2022/08/08 09:25:55;;;;;;;2.97;1.42;;;20.10;84.00;;;;;;5114665;28;20030;-71
2022/08/08 09:28:26;;;;;;;1.33;1.20;;;20.00;85.00;;;;;;5114413;28;20110;-70
2022/08/08 09:30:56;;;;;;;1.80;1.25;;;19.90;84.30;;;;;;5114544;28;20028;-71
2022/08/08 09:33:24;;;;;;;3.38;1.30;;;19.90;84.00;;;;;;5114764;28;20032;-70
2022/08/08 09:35:51;;;;;;;3.80;1.27;;;19.90;84.30;;;;;;5114790;28;20077;-71
2022/08/08 09:38:32;;;;;;;1.50;1.38;;;19.90;84.00;;;;;;5113839;28;20024;-71
2022/08/08 09:41:05;;;;;;;4.50;1.20;;;19.90;84.50;;;;;;5114055;28;20016;-71
2022/08/08 09:43:38;;;;;;;2.17;1.20;;;19.80;83.60;;;;;;5114434;28;20395;-71
2022/08/08 09:46:05;;;;;;;3.67;1.30;;;19.80;84.20;;;;;;5114000;28;20031;-71
2022/08/08 09:48:34;;;;;;;1.83;1.30;;;19.80;84.40;;;;;;5114312;28;20341;-71
2022/08/08 09:51:01;;;;;;;1.50;1.30;;;19.80;85.10;;;;;;5113776;28;20038;-71
2022/08/08 09:53:33;;;;;;;3.25;1.45;;;19.80;85.80;;;;;;5114184;28;20023;-71
2022/08/08 09:56:03;;;;;;;2.80;1.50;;;19.70;88.30;;;;;;5113571;28;20023;-72
2022/08/08 09:58:38;;;;;;;3.03;1.55;;;19.80;90.50;;;;;;5115095;27;20102;-70
2022/08/08 10:01:08;;;;;;;2.10;1.40;;;19.80;91.20;;;;;;5133461;27;20023;-70
2022/08/08 10:03:35;;;;;;;1.40;1.30;;;19.70;91.00;;;;;;5134515;27;20035;-72
2022/08/08 10:06:18;;;;;;;2.50;1.55;;;19.70;91.30;;;;;;5134439;27;20032;-72
2022/08/08 10:08:51;;;;;;;3.80;1.48;;;19.60;92.20;;;;;;5134528;27;20484;-71
2022/08/08 10:11:19;;;;;;;1.75;1.50;;;19.50;92.90;;;;;;5133924;27;20464;-71
2022/08/08 10:13:57;;;;;;;3.08;1.60;;;19.60;93.50;;;;;;5134191;27;20019;-71
2022/08/08 10:16:39;;;;;;;2.95;1.80;;;19.50;93.70;;;;;;5134356;27;20035;-71
2022/08/08 10:19:07;;;;;;;3.28;1.63;;;19.50;94.10;;;;;;5133481;27;20483;-70
2022/08/08 10:21:34;;;;;;;4.25;1.95;;;19.50;94.60;;;;;;5134163;27;20027;-70
2022/08/08 10:24:05;;;;;;;4.72;2.13;;;19.50;94.40;;;;;;5133644;27;20023;-72
2022/08/08 10:26:52;;;;;;;2.25;1.60;;;19.60;94.10;;;;;;5130666;27;20087;-72
2022/08/08 10:29:43;;;;;;;3.72;1.83;;;19.50;93.70;;;;;;5114788;27;20043;-72
2022/08/08 10:35:15;;;;;;;2.83;1.48;;;19.50;93.70;;;;;;5133876;27;20387;-72
2022/08/08 10:38:03;;;;;;;2.13;1.90;;;19.50;94.90;;;;;;5133817;27;20023;-72
2022/08/08 10:40:30;;;;;;;2.25;1.70;;;19.50;95.40;;;;;;5133518;27;20489;-72
2022/08/08 10:43:04;;;;;;;3.55;1.80;;;19.50;96.00;;;;;;5134053;27;20095;-72
2022/08/08 10:45:41;;;;;;;2.00;1.70;;;19.40;96.70;;;;;;5133377;27;20023;-71
2022/08/08 10:48:10;;;;;;;4.10;2.25;;;19.40;97.10;;;;;;5133370;27;20027;-70
2022/08/08 10:50:37;;;;;;;2.92;2.03;;;19.40;98.00;;;;;;5133714;27;20107;-71
2022/08/08 10:53:15;;;;;;;3.10;2.17;;;19.50;98.90;;;;;;5133182;27;20027;-71
2022/08/08 10:55:41;;;;;;;2.88;2.10;;;19.40;99.00;;;;;;5133874;27;20531;-71
2022/08/08 10:58:08;;;;;;;4.70;2.47;;;19.30;99.00;;;;;;5133094;27;20075;-70
2022/08/08 11:00:44;;;;;;;3.53;2.50;;;19.30;99.50;;;;;;5115126;27;20377;-70
2022/08/08 11:03:16;;;;;;;3.65;2.47;;;19.20;99.60;;;;;;5132869;27;20491;-71
2022/08/08 11:05:49;;;;;;;3.65;2.03;;;19.20;99.90;;;;;;5133564;27;20027;-71
2022/08/08 11:08:27;;;;;;;4.25;2.70;;;19.10;99.90;;;;;;5133151;28;20015;-71
2022/08/08 11:11:09;;;;;;;2.95;2.03;;;19.10;99.90;;;;;;5133467;28;20019;-71
2022/08/08 11:13:43;;;;;;;2.58;2.20;;;19.10;99.90;;;;;;5133474;28;20031;-71
2022/08/08 11:16:31;;;;;;;4.07;2.28;;;19.00;99.90;;;;;;5133071;28;20039;-71
2022/08/08 11:18:59;;;;;;;4.07;2.50;;;19.10;99.90;;;;;;5133324;28;20024;-71
2022/08/08 11:21:25;;;;;;;5.57;2.22;;;19.00;99.90;;;;;;5133235;28;20034;-71
2022/08/08 11:23:52;;;;;;;4.95;2.40;;;19.00;99.90;;;;;;5133345;28;20027;-71
2022/08/08 11:26:18;;;;;;;2.30;2.05;;;19.00;99.90;;;;;;5132926;28;20527;-71
2022/08/08 11:28:45;;;;;;;2.10;1.90;;;18.90;99.90;;;;;;5133022;28;20047;-71
2022/08/08 11:31:14;;;;;;;4.20;2.28;;;18.90;99.90;;;;;;5132918;28;20119;-71
2022/08/08 11:33:44;;;;;;;3.08;2.00;;;18.90;99.90;;;;;;5135723;27;20027;-71
2022/08/08 11:36:10;;;;;;;5.57;2.88;;;18.90;99.90;;;;;;5137069;27;20479;-71
2022/08/08 11:38:36;;;;;;;3.80;2.15;;;18.90;99.90;;;;;;5137361;27;20386;-71
2022/08/08 11:41:03;;;;;;;2.40;1.55;;;18.90;99.90;;;;;;5137229;27;20034;-71
2022/08/08 11:43:29;;;;;;;2.10;1.90;;;18.90;99.90;;;;;;5137403;27;20046;-71
2022/08/08 11:45:55;;;;;;;3.83;2.47;;;18.90;99.90;;;;;;5137164;27;20023;-71
2022/08/08 11:48:22;;;;;;;3.15;2.10;;;18.90;99.90;;;;;;5136603;27;20027;-70
2022/08/08 11:50:49;;;;;;;2.45;1.88;;;18.90;99.90;;;;;;5136966;27;20455;-71
2022/08/08 11:53:15;;;;;;;2.67;2.20;;;18.90;99.90;;;;;;5136521;27;20023;-70
2022/08/08 11:55:49;;;;;;;3.08;2.17;;;19.00;99.90;;;;;;5137205;27;20031;-71
2022/08/08 11:58:15;;;;;;;2.70;2.00;;;19.00;99.90;;;;;;5136565;27;20027;-70
2022/08/08 12:00:52;;;;;;;2.33;1.98;;;19.00;99.90;;;;;;5136945;27;20478;-71
2022/08/08 12:03:17;;;;;;;2.70;2.03;;;19.10;99.90;;;;;;5136474;27;20038;-71
2022/08/08 12:05:45;;;;;;;2.05;1.85;;;19.00;99.90;;;;;;5136480;27;20031;-71
2022/08/08 12:08:12;;;;;;;3.67;2.03;;;19.00;99.90;;;;;;5121665;27;20032;-71
2022/08/08 12:10:50;;;;;;;3.45;2.20;;;19.10;99.90;;;;;;5115870;28;20031;-71
2022/08/08 12:13:24;;;;;;;4.28;2.22;;;19.10;99.90;;;;;;5115474;28;20452;-71
2022/08/08 12:15:50;;;;;;;4.68;1.95;;;19.10;99.90;;;;;;5115790;28;20035;-71
2022/08/08 12:18:25;;;;;;;2.53;2.00;;;19.10;99.90;;;;;;5116372;27;20016;-71
2022/08/08 12:20:53;;;;;;;2.47;2.00;;;19.10;99.90;;;;;;5116273;27;20031;-70
2022/08/08 12:23:35;;;;;;;2.70;2.00;;;19.10;99.70;;;;;;5115430;28;20032;-71
2022/08/08 12:26:08;;;;;;;;;;;19.10;99.90;;;;;;5116243;28;20110;-70
2022/08/08 12:28:34;;;;;;;1.90;1.73;;;19.20;99.90;;;;;;5115896;28;19915;-70
2022/08/08 12:31:08;;;;;;;2.53;2.08;;;19.30;99.90;;;;;;5115559;28;20460;-72
2022/08/08 12:33:35;;;;;;;4.53;1.88;;;19.20;99.70;;;;;;5115801;28;20498;-71
2022/08/08 12:36:14;;;;;;;2.33;1.75;;;19.30;99.90;;;;;;5115654;28;20026;-71
2022/08/08 12:38:52;;;;;;;2.80;1.70;;;19.30;99.90;;;;;;5115462;28;20042;-71
2022/08/08 12:41:21;;;;;;;1.83;1.60;;;19.30;99.10;;;;;;5115286;28;20035;-70
2022/08/08 12:43:49;;;;;;;2.13;1.90;;;19.30;99.50;;;;;;5114356;28;20164;-71
2022/08/08 12:46:16;;;;;;;2.38;1.80;;;19.30;99.60;;;;;;5114835;28;20027;-70
2022/08/08 12:49:04;;;;;;;4.75;2.65;;;19.40;99.70;;;;;;5115598;28;20024;-71
2022/08/08 12:51:44;;;;;;;3.80;2.17;;;19.30;99.90;;;;;;5115296;28;20031;-71
2022/08/08 12:54:21;;;;;;;2.80;2.20;;;19.40;99.90;;;;;;5115080;28;20388;-72
2022/08/08 12:56:47;;;;;;;2.28;2.03;;;19.40;99.90;;;;;;5114986;28;20364;-73
2022/08/08 12:59:24;;;;;;;2.97;2.28;;;19.40;99.90;;;;;;5115008;28;20460;-70
2022/08/08 13:01:56;;;;;;;2.92;1.92;;;19.50;99.90;;;;;;5115293;28;20500;-70
2022/08/08 13:04:23;;;;;;;3.40;2.33;;;19.60;99.90;;;;;;5114882;28;20023;-71
2022/08/08 13:06:52;;;;;;;2.67;2.47;;;19.60;99.80;;;;;;5115059;28;20036;-72
2022/08/08 13:09:31;;;;;;;3.75;2.80;;;19.60;99.50;;;;;;5114688;28;20375;-70
2022/08/08 13:11:56;;;;;;;2.22;1.85;;;19.60;99.90;;;;;;5114970;28;20063;-71
2022/08/08 13:14:36;;;;;;;3.40;2.05;;;19.70;99.90;;;;;;5114500;28;20475;-70
2022/08/08 13:17:03;;;;;;;2.00;1.80;;;19.60;99.40;;;;;;5114860;28;20375;-70
2022/08/08 13:19:30;;;;;;;3.08;2.15;;;19.60;99.00;;;;;;5114517;28;20027;-72
2022/08/08 13:21:55;;;;;;;6.88;2.33;;;19.60;99.00;;;;;;5114525;28;20468;-71
2022/08/08 13:24:21;;;;;;;4.75;1.80;;;19.60;99.30;;;;;;5114407;28;20031;-72
2022/08/08 13:26:47;;;;;;;5.80;3.10;;;19.60;99.60;;;;;;5114781;28;20031;-71
2022/08/08 13:29:14;;;;;;;4.40;2.45;;;19.60;99.50;;;;;;5114177;28;20050;-72
2022/08/08 13:31:50;;;;;;;6.30;2.17;;;19.60;99.20;;;;;;5114810;28;20020;-71
2022/08/08 13:34:24;;;;;;;3.47;2.30;;;19.60;98.80;;;;;;5114114;28;20464;-71